createdAt,value
2023-05-02T00:00:45.380Z,37.45
2023-05-02T00:01:45.421Z,37.45
2023-05-02T00:02:45.633Z,37.45
2023-05-02T00:03:45.624Z,37.42
2023-05-02T00:04:45.486Z,37.45
2023-05-02T00:05:45.490Z,37.42
2023-05-02T00:06:45.574Z,37.43
2023-05-02T00:07:45.544Z,37.47
2023-05-02T00:08:45.587Z,37.41
2023-05-02T00:09:45.608Z,37.40
2023-05-02T00:10:45.637Z,37.40
2023-05-02T00:11:45.647Z,37.43
2023-05-02T00:12:45.671Z,37.42
2023-05-02T00:13:45.688Z,37.46
2023-05-02T00:14:45.708Z,37.43
2023-05-02T00:15:45.732Z,37.44
2023-05-02T00:16:45.775Z,37.39
2023-05-02T00:17:45.818Z,37.42
2023-05-02T00:18:45.780Z,37.43
2023-05-02T00:19:45.809Z,37.43
2023-05-02T00:20:45.850Z,37.42
2023-05-02T00:21:45.860Z,37.42
2023-05-02T00:22:45.958Z,37.48
2023-05-02T00:23:45.897Z,37.40
2023-05-02T00:24:45.928Z,37.39
2023-05-02T00:25:45.966Z,37.42
2023-05-02T00:26:45.975Z,37.46
2023-05-02T00:27:45.996Z,37.44
2023-05-02T00:28:46.030Z,37.48
2023-05-02T00:29:46.037Z,37.43
2023-05-02T00:30:46.133Z,37.41
2023-05-02T00:31:46.081Z,37.41
2023-05-02T00:32:46.119Z,37.44
2023-05-02T00:33:46.132Z,37.40
2023-05-02T00:34:46.169Z,37.47
2023-05-02T00:35:46.196Z,37.44
2023-05-02T00:36:46.235Z,37.44
2023-05-02T00:37:46.254Z,37.43
2023-05-02T00:38:46.285Z,37.43
2023-05-02T00:39:46.332Z,37.40
2023-05-02T00:40:46.364Z,37.39
2023-05-02T00:41:46.351Z,37.44
2023-05-02T00:42:46.382Z,37.41
2023-05-02T00:43:46.401Z,37.46
2023-05-02T00:44:46.421Z,37.40
2023-05-02T00:45:46.602Z,37.41
2023-05-02T00:46:46.585Z,37.40
2023-05-02T00:47:46.521Z,37.44
2023-05-02T00:48:46.511Z,37.40
2023-05-02T00:49:46.552Z,37.41
2023-05-02T00:50:46.582Z,37.42
2023-05-02T00:51:46.606Z,37.43
2023-05-02T00:52:46.625Z,37.41
2023-05-02T00:53:46.646Z,37.43
2023-05-02T00:54:46.675Z,37.41
2023-05-02T00:55:46.705Z,37.42
2023-05-02T00:56:46.742Z,37.48
2023-05-02T00:57:46.760Z,37.44
2023-05-02T00:58:46.785Z,37.43
2023-05-02T00:59:46.829Z,37.43
2023-05-02T01:00:46.851Z,37.40
2023-05-02T01:01:46.911Z,37.41
2023-05-02T01:02:46.946Z,37.42
2023-05-02T01:03:47.092Z,37.39
2023-05-02T01:04:46.960Z,37.43
2023-05-02T01:05:46.986Z,37.42
2023-05-02T01:06:47.226Z,37.47
2023-05-02T01:07:47.045Z,37.40
2023-05-02T01:08:47.068Z,37.40
2023-05-02T01:09:47.101Z,37.46
2023-05-02T01:10:47.113Z,37.41
2023-05-02T01:11:47.149Z,37.39
2023-05-02T01:12:47.182Z,37.44
2023-05-02T01:13:47.207Z,37.40
2023-05-02T01:14:47.232Z,37.40
2023-05-02T01:15:47.279Z,37.40
2023-05-02T01:16:47.281Z,37.40
2023-05-02T01:17:47.349Z,37.35
2023-05-02T01:18:47.330Z,37.44
2023-05-02T01:19:47.349Z,37.40
2023-05-02T01:20:47.378Z,37.42
2023-05-02T01:21:47.418Z,37.37
2023-05-02T01:22:47.521Z,37.36
2023-05-02T01:23:47.475Z,37.37
2023-05-02T01:24:47.511Z,37.37
2023-05-02T01:25:47.544Z,37.41
2023-05-02T01:26:47.578Z,37.39
2023-05-02T01:27:47.607Z,37.40
2023-05-02T01:28:47.637Z,37.39
2023-05-02T01:29:47.664Z,37.37
2023-05-02T01:30:47.688Z,37.37
2023-05-02T01:31:47.757Z,37.43
2023-05-02T01:32:47.825Z,37.44
2023-05-02T01:33:47.877Z,37.40
2023-05-02T01:34:47.823Z,37.37
2023-05-02T01:35:47.844Z,37.39
2023-05-02T01:36:47.876Z,37.41
2023-05-02T01:37:47.914Z,37.40
2023-05-02T01:38:47.955Z,37.42
2023-05-02T01:39:47.966Z,37.42
2023-05-02T01:40:48.013Z,37.40
2023-05-02T01:41:48.042Z,37.40
2023-05-02T01:42:48.049Z,37.42
2023-05-02T01:43:48.120Z,37.40
2023-05-02T01:44:48.139Z,37.45
2023-05-02T01:45:48.134Z,37.39
2023-05-02T01:46:48.208Z,37.39
2023-05-02T01:47:48.267Z,37.40
2023-05-02T01:48:48.221Z,37.37
2023-05-02T01:49:48.249Z,37.40
2023-05-02T01:50:48.278Z,37.42
2023-05-02T01:51:48.325Z,37.39
2023-05-02T01:52:48.345Z,37.36
2023-05-02T01:53:48.376Z,37.39
2023-05-02T01:54:48.390Z,37.36
2023-05-02T01:55:48.428Z,37.40
2023-05-02T01:56:48.465Z,37.35
2023-05-02T01:57:48.493Z,37.34
2023-05-02T01:58:48.518Z,37.39
2023-05-02T01:59:48.575Z,37.35
2023-05-02T02:00:48.612Z,37.39
2023-05-02T02:01:48.627Z,37.32
2023-05-02T02:02:48.742Z,37.36
2023-05-02T02:03:48.721Z,37.36
2023-05-02T02:04:48.858Z,37.40
2023-05-02T02:05:48.746Z,37.37
2023-05-02T02:06:48.892Z,37.37
2023-05-02T02:07:48.789Z,37.32
2023-05-02T02:08:48.814Z,37.36
2023-05-02T02:09:48.851Z,37.35
2023-05-02T02:10:49.005Z,37.39
2023-05-02T02:11:48.913Z,37.34
2023-05-02T02:12:48.927Z,37.38
2023-05-02T02:13:48.956Z,37.34
2023-05-02T02:14:48.972Z,37.34
2023-05-02T02:15:49.031Z,37.35
2023-05-02T02:16:49.095Z,37.37
2023-05-02T02:17:49.114Z,37.34
2023-05-02T02:18:49.092Z,37.34
2023-05-02T02:19:49.118Z,37.32
2023-05-02T02:20:49.152Z,37.34
2023-05-02T02:21:49.181Z,37.30
2023-05-02T02:22:49.210Z,37.31
2023-05-02T02:23:49.257Z,37.35
2023-05-02T02:24:49.256Z,37.32
2023-05-02T02:25:49.305Z,37.31
2023-05-02T02:26:49.299Z,37.33
2023-05-02T02:27:49.342Z,37.34
2023-05-02T02:28:49.355Z,37.36
2023-05-02T02:29:49.375Z,37.34
2023-05-02T02:30:49.426Z,37.31
2023-05-02T02:31:49.423Z,37.32
2023-05-02T02:32:49.521Z,37.34
2023-05-02T02:33:49.484Z,37.31
2023-05-02T02:34:49.511Z,37.31
2023-05-02T02:35:49.529Z,37.32
2023-05-02T02:36:49.557Z,37.34
2023-05-02T02:37:49.579Z,37.32
2023-05-02T02:38:49.624Z,37.30
2023-05-02T02:39:49.637Z,37.30
2023-05-02T02:40:49.684Z,37.28
2023-05-02T02:41:49.693Z,37.32
2023-05-02T02:42:49.705Z,37.30
2023-05-02T02:43:49.719Z,37.31
2023-05-02T02:44:49.751Z,37.28
2023-05-02T02:45:49.780Z,37.28
2023-05-02T02:46:49.851Z,37.25
2023-05-02T02:47:49.873Z,37.30
2023-05-02T02:48:49.838Z,37.30
2023-05-02T02:49:49.902Z,37.33
2023-05-02T02:50:49.894Z,37.31
2023-05-02T02:51:49.921Z,37.27
2023-05-02T02:52:49.941Z,37.28
2023-05-02T02:53:49.966Z,37.28
2023-05-02T02:54:49.991Z,37.25
2023-05-02T02:55:50.010Z,37.27
2023-05-02T02:56:50.057Z,37.29
2023-05-02T02:57:50.065Z,37.27
2023-05-02T02:58:50.111Z,37.25
2023-05-02T02:59:50.119Z,37.29
2023-05-02T03:00:50.128Z,37.24
2023-05-02T03:01:50.206Z,37.25
2023-05-02T03:02:50.206Z,37.28
2023-05-02T03:03:50.229Z,37.29
2023-05-02T03:04:50.224Z,37.30
2023-05-02T03:05:50.253Z,37.28
2023-05-02T03:06:50.356Z,37.25
2023-05-02T03:07:50.315Z,37.29
2023-05-02T03:08:50.352Z,37.25
2023-05-02T03:09:50.372Z,37.28
2023-05-02T03:10:50.391Z,37.24
2023-05-02T03:11:50.411Z,37.27
2023-05-02T03:12:50.440Z,37.32
2023-05-02T03:13:50.463Z,37.25
2023-05-02T03:14:50.490Z,37.28
2023-05-02T03:15:50.550Z,37.29
2023-05-02T03:16:50.548Z,37.28
2023-05-02T03:17:50.610Z,37.27
2023-05-02T03:18:50.599Z,37.24
2023-05-02T03:19:50.628Z,37.25
2023-05-02T03:20:50.652Z,37.28
2023-05-02T03:21:50.692Z,37.26
2023-05-02T03:22:50.723Z,37.27
2023-05-02T03:23:50.757Z,37.23
2023-05-02T03:24:50.789Z,37.27
2023-05-02T03:25:50.823Z,37.22
2023-05-02T03:26:50.852Z,37.20
2023-05-02T03:27:50.885Z,37.23
2023-05-02T03:28:50.919Z,37.27
2023-05-02T03:29:50.950Z,37.25
2023-05-02T03:30:50.980Z,37.28
2023-05-02T03:31:51.066Z,37.24
2023-05-02T03:32:51.113Z,37.24
2023-05-02T03:33:51.076Z,37.25
2023-05-02T03:34:51.123Z,37.23
2023-05-02T03:35:51.118Z,37.27
2023-05-02T03:36:51.140Z,37.24
2023-05-02T03:37:51.143Z,37.29
2023-05-02T03:38:51.153Z,37.21
2023-05-02T03:39:51.150Z,37.27
2023-05-02T03:40:51.150Z,37.27
2023-05-02T03:41:51.162Z,37.23
2023-05-02T03:42:51.167Z,37.23
2023-05-02T03:43:51.178Z,37.27
2023-05-02T03:44:51.172Z,37.25
2023-05-02T03:45:51.184Z,37.20
2023-05-02T03:46:51.250Z,37.24
2023-05-02T03:47:51.213Z,37.22
2023-05-02T03:48:51.208Z,37.21
2023-05-02T03:49:51.208Z,37.19
2023-05-02T03:50:51.222Z,37.25
2023-05-02T03:51:51.227Z,37.24
2023-05-02T03:52:51.228Z,37.22
2023-05-02T03:53:51.236Z,37.19
2023-05-02T03:54:51.252Z,37.25
2023-05-02T03:55:51.244Z,37.27
2023-05-02T03:56:51.269Z,37.24
2023-05-02T03:57:51.255Z,37.24
2023-05-02T03:58:51.392Z,37.21
2023-05-02T03:59:51.306Z,37.23
2023-05-02T04:00:51.341Z,37.23
2023-05-02T04:01:51.422Z,37.20
2023-05-02T04:02:51.541Z,37.24
2023-05-02T04:03:51.472Z,37.23
2023-05-02T04:04:51.482Z,37.20
2023-05-02T04:05:51.533Z,37.23
2023-05-02T04:06:51.666Z,37.18
2023-05-02T04:07:51.566Z,37.22
2023-05-02T04:08:51.601Z,37.20
2023-05-02T04:09:51.641Z,37.23
2023-05-02T04:10:51.663Z,37.19
2023-05-02T04:11:51.686Z,37.20
2023-05-02T04:12:51.710Z,37.23
2023-05-02T04:13:53.439Z,37.20
2023-05-02T04:14:51.784Z,37.21
2023-05-02T04:15:51.805Z,37.23
2023-05-02T04:16:51.881Z,37.24
2023-05-02T04:17:51.896Z,37.21
2023-05-02T04:18:51.888Z,37.24
2023-05-02T04:19:51.901Z,37.22
2023-05-02T04:20:51.929Z,37.22
2023-05-02T04:21:51.957Z,37.23
2023-05-02T04:22:51.985Z,37.23
2023-05-02T04:23:52.008Z,37.24
2023-05-02T04:24:52.039Z,37.19
2023-05-02T04:25:52.062Z,37.21
2023-05-02T04:26:52.094Z,37.25
2023-05-02T04:27:52.128Z,37.19
2023-05-02T04:28:52.163Z,37.21
2023-05-02T04:29:52.192Z,37.21
2023-05-02T04:30:52.250Z,37.16
2023-05-02T04:31:52.232Z,37.19
2023-05-02T04:32:52.333Z,37.24
2023-05-02T04:33:52.283Z,37.23
2023-05-02T04:34:52.342Z,37.19
2023-05-02T04:35:52.365Z,37.22
2023-05-02T04:36:52.388Z,37.19
2023-05-02T04:37:52.417Z,37.19
2023-05-02T04:38:52.431Z,37.16
2023-05-02T04:39:52.470Z,37.16
2023-05-02T04:40:52.502Z,37.14
2023-05-02T04:41:52.534Z,37.15
2023-05-02T04:42:52.558Z,37.19
2023-05-02T04:43:52.580Z,37.11
2023-05-02T04:44:52.605Z,37.18
2023-05-02T04:45:52.687Z,37.19
2023-05-02T04:46:52.686Z,37.16
2023-05-02T04:47:52.758Z,37.23
2023-05-02T04:48:52.706Z,37.19
2023-05-02T04:49:52.748Z,37.23
2023-05-02T04:50:52.772Z,37.16
2023-05-02T04:51:52.802Z,37.19
2023-05-02T04:52:52.830Z,37.17
2023-05-02T04:53:52.856Z,37.19
2023-05-02T04:54:52.902Z,37.14
2023-05-02T04:55:53.252Z,37.18
2023-05-02T04:56:52.956Z,37.15
2023-05-02T04:57:53.735Z,37.18
2023-05-02T04:58:53.007Z,37.17
2023-05-02T04:59:53.041Z,37.15
2023-05-02T05:00:53.069Z,37.13
2023-05-02T05:01:53.137Z,37.18
2023-05-02T05:02:53.188Z,37.22
2023-05-02T05:03:53.223Z,37.17
2023-05-02T05:04:53.263Z,37.12
2023-05-02T05:05:53.204Z,37.18
2023-05-02T05:06:53.313Z,37.15
2023-05-02T05:07:53.263Z,37.12
2023-05-02T05:08:53.297Z,37.15
2023-05-02T05:09:53.620Z,37.15
2023-05-02T05:10:53.362Z,37.15
2023-05-02T05:11:53.398Z,37.16
2023-05-02T05:12:53.437Z,37.10
2023-05-02T05:13:53.452Z,37.12
2023-05-02T05:14:53.481Z,37.14
2023-05-02T05:15:53.520Z,37.14
2023-05-02T05:16:53.555Z,37.14
2023-05-02T05:17:53.596Z,37.14
2023-05-02T05:18:53.618Z,37.24
2023-05-02T05:19:53.669Z,37.19
2023-05-02T05:20:53.694Z,37.23
2023-05-02T05:21:53.717Z,37.45
2023-05-02T05:22:53.754Z,37.37
2023-05-02T05:23:53.801Z,37.35
2023-05-02T05:24:53.841Z,37.32
2023-05-02T05:25:53.837Z,37.63
2023-05-02T05:26:53.842Z,38.10
2023-05-02T05:27:53.868Z,38.53
2023-05-02T05:28:53.876Z,38.52
2023-05-02T05:29:53.916Z,39.07
2023-05-02T05:30:53.914Z,39.06
2023-05-02T05:31:53.960Z,39.59
2023-05-02T05:32:54.703Z,39.69
2023-05-02T05:33:54.049Z,39.55
2023-05-02T05:34:54.053Z,39.54
2023-05-02T05:35:54.110Z,39.85
2023-05-02T05:36:54.172Z,40.04
2023-05-02T05:37:54.237Z,40.14
2023-05-02T05:38:54.293Z,40.17
2023-05-02T05:39:54.357Z,40.35
2023-05-02T05:40:54.404Z,40.52
2023-05-02T05:41:54.452Z,40.57
2023-05-02T05:42:54.497Z,40.62
2023-05-02T05:43:54.540Z,40.88
2023-05-02T05:44:54.590Z,40.90
2023-05-02T05:45:54.628Z,41.29
2023-05-02T05:46:54.760Z,41.32
2023-05-02T05:47:54.727Z,41.16
2023-05-02T05:48:54.708Z,41.20
2023-05-02T05:49:54.750Z,41.28
2023-05-02T05:50:54.758Z,41.44
2023-05-02T05:51:54.770Z,41.41
2023-05-02T05:52:54.790Z,41.49
2023-05-02T05:53:54.821Z,41.69
2023-05-02T05:54:54.893Z,41.89
2023-05-02T05:55:54.823Z,42.00
2023-05-02T05:56:54.848Z,41.82
2023-05-02T05:57:54.844Z,42.12
2023-05-02T05:58:54.912Z,42.03
2023-05-02T05:59:54.858Z,42.05
2023-05-02T06:00:54.858Z,42.47
2023-05-02T06:01:54.872Z,42.50
2023-05-02T06:02:54.945Z,42.36
2023-05-02T06:03:54.885Z,42.42
2023-05-02T06:04:54.906Z,42.62
2023-05-02T06:05:54.869Z,42.65
2023-05-02T06:06:54.987Z,42.79
2023-05-02T06:07:54.852Z,43.10
2023-05-02T06:08:54.845Z,43.50
2023-05-02T06:09:54.828Z,43.33
2023-05-02T06:10:54.824Z,43.39
2023-05-02T06:11:54.830Z,43.40
2023-05-02T06:12:55.280Z,43.42
2023-05-02T06:13:54.818Z,43.47
2023-05-02T06:14:54.785Z,43.61
2023-05-02T06:15:54.782Z,43.49
2023-05-02T06:16:54.775Z,43.63
2023-05-02T06:17:54.777Z,43.54
2023-05-02T06:18:54.739Z,43.71
2023-05-02T06:19:54.727Z,44.03
2023-05-02T06:20:54.702Z,43.85
2023-05-02T06:21:54.674Z,43.71
2023-05-02T06:22:54.653Z,43.74
2023-05-02T06:23:54.647Z,43.84
2023-05-02T06:24:54.684Z,43.82
2023-05-02T06:25:54.629Z,43.74
2023-05-02T06:26:54.645Z,43.63
2023-05-02T06:27:54.698Z,43.62
2023-05-02T06:28:54.598Z,43.87
2023-05-02T06:29:54.598Z,43.99
2023-05-02T06:30:54.571Z,44.14
2023-05-02T06:31:54.590Z,44.04
2023-05-02T06:32:54.707Z,43.98
2023-05-02T06:33:55.196Z,43.95
2023-05-02T06:34:54.549Z,43.98
2023-05-02T06:35:54.519Z,44.04
2023-05-02T06:36:54.502Z,44.12
2023-05-02T06:37:54.494Z,44.03
2023-05-02T06:38:55.195Z,44.12
2023-05-02T06:39:54.504Z,44.06
2023-05-02T06:40:54.489Z,44.15
2023-05-02T06:41:54.477Z,44.15
2023-05-02T06:42:54.483Z,44.11
2023-05-02T06:43:54.473Z,44.16
2023-05-02T06:44:54.470Z,44.17
2023-05-02T06:45:54.472Z,44.15
2023-05-02T06:46:54.463Z,44.14
2023-05-02T06:47:54.481Z,44.17
2023-05-02T06:48:54.444Z,44.17
2023-05-02T06:49:54.406Z,44.22
2023-05-02T06:50:54.423Z,44.20
2023-05-02T06:51:54.397Z,44.17
2023-05-02T06:52:54.387Z,44.15
2023-05-02T06:53:54.376Z,44.23
2023-05-02T06:54:54.359Z,44.16
2023-05-02T06:55:54.383Z,44.18
2023-05-02T06:56:54.422Z,44.16
2023-05-02T06:57:54.465Z,44.13
2023-05-02T06:58:54.567Z,44.08
2023-05-02T06:59:54.530Z,44.12
2023-05-02T07:00:54.625Z,44.07
2023-05-02T07:01:54.613Z,44.09
2023-05-02T07:02:54.662Z,44.15
2023-05-02T07:03:54.692Z,44.11
2023-05-02T07:04:54.615Z,44.11
2023-05-02T07:05:54.617Z,44.01
2023-05-02T07:06:54.661Z,43.96
2023-05-02T07:07:54.616Z,43.90
2023-05-02T07:08:54.605Z,44.01
2023-05-02T07:09:54.618Z,43.96
2023-05-02T07:10:54.598Z,43.91
2023-05-02T07:11:54.613Z,43.96
2023-05-02T07:12:54.606Z,43.95
2023-05-02T07:13:54.617Z,43.90
2023-05-02T07:14:54.689Z,43.91
2023-05-02T07:15:54.724Z,43.81
2023-05-02T07:16:54.824Z,43.82
2023-05-02T07:17:54.835Z,43.80
2023-05-02T07:18:54.923Z,43.70
2023-05-02T07:19:54.902Z,43.74
2023-05-02T07:20:54.956Z,43.75
2023-05-02T07:21:55.033Z,43.84
2023-05-02T07:22:54.994Z,44.40
2023-05-02T07:23:54.995Z,44.68
2023-05-02T07:24:55.027Z,44.17
2023-05-02T07:25:54.984Z,44.31
2023-05-02T07:26:55.001Z,44.30
2023-05-02T07:27:54.997Z,44.41
2023-05-02T07:28:54.982Z,44.35
2023-05-02T07:29:54.980Z,44.35
2023-05-02T07:30:54.975Z,44.46
2023-05-02T07:31:55.026Z,44.50
2023-05-02T07:32:55.838Z,44.46
2023-05-02T07:33:54.958Z,44.55
2023-05-02T07:34:54.958Z,44.63
2023-05-02T07:35:54.941Z,44.79
2023-05-02T07:36:54.933Z,45.29
2023-05-02T07:37:54.924Z,45.07
2023-05-02T07:38:54.933Z,44.97
2023-05-02T07:39:54.935Z,45.44
2023-05-02T07:40:54.927Z,45.23
2023-05-02T07:41:54.889Z,45.64
2023-05-02T07:42:54.885Z,45.85
2023-05-02T07:43:54.876Z,45.66
2023-05-02T07:44:55.888Z,45.40
2023-05-02T07:45:54.932Z,45.46
2023-05-02T07:46:54.856Z,45.29
2023-05-02T07:47:54.842Z,45.25
2023-05-02T07:48:54.826Z,45.34
2023-05-02T07:49:54.813Z,45.63
2023-05-02T07:50:54.801Z,45.42
2023-05-02T07:51:54.794Z,45.45
2023-05-02T07:52:54.784Z,45.39
2023-05-02T07:53:54.778Z,45.57
2023-05-02T07:54:54.765Z,45.62
2023-05-02T07:55:54.789Z,45.69
2023-05-02T07:56:55.803Z,46.35
2023-05-02T07:57:54.856Z,45.96
2023-05-02T07:58:54.900Z,46.40
2023-05-02T07:59:54.910Z,46.28
2023-05-02T08:00:54.939Z,45.93
2023-05-02T08:01:54.958Z,45.74
2023-05-02T08:02:55.113Z,44.32
2023-05-02T08:03:55.967Z,42.49
2023-05-02T08:04:55.034Z,42.21
2023-05-02T08:05:55.028Z,41.43
2023-05-02T08:06:55.135Z,41.26
2023-05-02T08:07:54.995Z,41.20
2023-05-02T08:08:54.990Z,40.96
2023-05-02T08:09:55.804Z,41.42
2023-05-02T08:10:54.996Z,41.13
2023-05-02T08:11:55.005Z,41.55
2023-05-02T08:12:55.827Z,41.10
2023-05-02T08:13:55.011Z,41.26
2023-05-02T08:14:54.995Z,41.83
2023-05-02T08:15:55.376Z,42.25
2023-05-02T08:16:55.014Z,41.43
2023-05-02T08:17:55.038Z,40.60
2023-05-02T08:18:55.061Z,39.10
2023-05-02T08:19:55.033Z,38.75
2023-05-02T08:20:55.061Z,39.02
2023-05-02T08:21:55.133Z,38.80
2023-05-02T08:22:55.174Z,38.28
2023-05-02T08:23:55.189Z,38.60
2023-05-02T08:24:55.230Z,38.78
2023-05-02T08:25:55.810Z,40.01
2023-05-02T08:26:55.335Z,40.23
2023-05-02T08:27:58.843Z,40.00
2023-05-02T08:28:55.395Z,40.25
2023-05-02T08:29:55.990Z,40.29
2023-05-02T08:30:55.483Z,40.48
2023-05-02T08:31:55.442Z,40.80
2023-05-02T08:32:55.484Z,41.17
2023-05-02T08:33:56.326Z,41.51
2023-05-02T08:34:55.379Z,41.90
2023-05-02T08:35:55.319Z,41.93
2023-05-02T08:36:58.053Z,41.87
2023-05-02T08:37:55.287Z,42.13
2023-05-02T08:38:55.289Z,42.20
2023-05-02T08:39:55.249Z,42.01
2023-05-02T08:40:55.242Z,42.20
2023-05-02T08:41:55.221Z,42.14
2023-05-02T08:42:55.215Z,42.05
2023-05-02T08:43:55.191Z,42.12
2023-05-02T08:44:55.190Z,42.35
2023-05-02T08:45:55.167Z,42.25
2023-05-02T08:46:55.225Z,42.37
2023-05-02T08:47:55.152Z,42.35
2023-05-02T08:48:55.121Z,42.43
2023-05-02T08:49:55.105Z,43.00
2023-05-02T08:50:55.078Z,42.96
2023-05-02T08:51:55.045Z,42.88
2023-05-02T08:52:55.030Z,42.86
2023-05-02T08:53:55.013Z,43.01
2023-05-02T08:54:54.996Z,43.04
2023-05-02T08:55:55.757Z,43.10
2023-05-02T08:56:54.967Z,43.10
2023-05-02T08:57:54.934Z,43.16
2023-05-02T08:58:54.923Z,43.25
2023-05-02T08:59:54.910Z,43.35
2023-05-02T09:00:54.942Z,43.38
2023-05-02T09:01:54.857Z,44.50
2023-05-02T09:02:54.888Z,43.80
2023-05-02T09:03:54.856Z,43.73
2023-05-02T09:04:54.809Z,44.25
2023-05-02T09:05:54.792Z,44.50
2023-05-02T09:06:54.815Z,44.35
2023-05-02T09:07:54.756Z,44.19
2023-05-02T09:08:54.783Z,43.97
2023-05-02T09:09:54.707Z,43.92
2023-05-02T09:10:54.688Z,44.17
2023-05-02T09:11:54.675Z,44.21
2023-05-02T09:12:54.649Z,44.27
2023-05-02T09:13:54.636Z,44.43
2023-05-02T09:14:55.343Z,44.62
2023-05-02T09:15:54.837Z,44.68
2023-05-02T09:16:54.920Z,43.04
2023-05-02T09:17:54.831Z,42.93
2023-05-02T09:18:54.782Z,42.63
2023-05-02T09:19:54.774Z,42.01
2023-05-02T09:20:54.741Z,42.19
2023-05-02T09:21:54.737Z,41.97
2023-05-02T09:22:54.701Z,41.12
2023-05-02T09:23:54.684Z,40.55
2023-05-02T09:24:54.660Z,40.81
2023-05-02T09:25:54.648Z,42.04
2023-05-02T09:26:54.624Z,42.05
2023-05-02T09:27:54.600Z,42.40
2023-05-02T09:28:54.585Z,42.71
2023-05-02T09:29:54.613Z,42.88
2023-05-02T09:30:54.693Z,42.69
2023-05-02T09:31:56.676Z,42.84
2023-05-02T09:32:54.751Z,42.99
2023-05-02T09:33:54.764Z,43.23
2023-05-02T09:34:54.794Z,43.19
2023-05-02T09:35:54.836Z,43.19
2023-05-02T09:36:54.985Z,43.27
2023-05-02T09:37:54.877Z,43.40
2023-05-02T09:38:54.973Z,43.61
2023-05-02T09:39:54.935Z,43.76
2023-05-02T09:40:54.951Z,43.73
2023-05-02T09:41:55.073Z,43.81
2023-05-02T09:42:55.023Z,43.83
2023-05-02T09:43:55.029Z,44.00
2023-05-02T09:44:55.050Z,43.87
2023-05-02T09:45:55.089Z,44.02
2023-05-02T09:46:55.097Z,44.42
2023-05-02T09:47:55.258Z,44.19
2023-05-02T09:48:55.096Z,44.27
2023-05-02T09:49:55.091Z,44.89
2023-05-02T09:50:55.107Z,44.56
2023-05-02T09:51:55.106Z,44.48
2023-05-02T09:52:55.128Z,44.49
2023-05-02T09:53:55.158Z,44.58
2023-05-02T09:54:55.116Z,44.66
2023-05-02T09:55:55.112Z,44.75
2023-05-02T09:56:55.117Z,44.79
2023-05-02T09:57:55.854Z,45.06
2023-05-02T09:58:55.124Z,45.34
2023-05-02T09:59:55.115Z,45.54
2023-05-02T10:00:55.118Z,45.43
2023-05-02T10:01:55.205Z,45.30
2023-05-02T10:02:55.136Z,45.67
2023-05-02T10:03:55.069Z,45.81
2023-05-02T10:04:55.062Z,46.30
2023-05-02T10:05:55.206Z,46.37
2023-05-02T10:06:55.009Z,46.23
2023-05-02T10:07:54.975Z,46.27
2023-05-02T10:08:55.966Z,46.75
2023-05-02T10:09:54.911Z,47.16
2023-05-02T10:10:54.875Z,45.94
2023-05-02T10:11:54.854Z,45.92
2023-05-02T10:12:54.853Z,46.00
2023-05-02T10:13:56.460Z,46.04
2023-05-02T10:14:54.793Z,46.12
2023-05-02T10:15:56.432Z,45.93
2023-05-02T10:16:54.740Z,45.86
2023-05-02T10:17:54.766Z,45.93
2023-05-02T10:18:54.749Z,45.95
2023-05-02T10:19:55.327Z,45.96
2023-05-02T10:20:54.671Z,46.07
2023-05-02T10:21:59.374Z,46.05
2023-05-02T10:22:55.368Z,46.11
2023-05-02T10:23:54.596Z,45.97
2023-05-02T10:24:55.371Z,46.04
2023-05-02T10:25:54.585Z,46.08
2023-05-02T10:26:56.446Z,46.03
2023-05-02T10:27:54.525Z,45.96
2023-05-02T10:28:54.487Z,46.03
2023-05-02T10:29:57.366Z,46.17
2023-05-02T10:30:54.463Z,46.21
2023-05-02T10:31:54.500Z,46.21
2023-05-02T10:32:54.505Z,46.29
2023-05-02T10:33:54.399Z,46.24
2023-05-02T10:34:54.367Z,46.28
2023-05-02T10:35:54.352Z,46.43
2023-05-02T10:36:54.339Z,46.34
2023-05-02T10:37:54.332Z,46.42
2023-05-02T10:38:54.311Z,46.48
2023-05-02T10:39:54.290Z,46.50
2023-05-02T10:40:54.278Z,46.49
2023-05-02T10:41:54.255Z,46.46
2023-05-02T10:43:01.866Z,46.43
2023-05-02T10:43:54.210Z,46.46
2023-05-02T10:44:55.876Z,46.44
2023-05-02T10:45:54.192Z,46.51
2023-05-02T10:46:54.196Z,46.51
2023-05-02T10:47:54.886Z,46.51
2023-05-02T10:48:54.146Z,46.51
2023-05-02T10:49:58.905Z,46.49
2023-05-02T10:50:54.093Z,46.47
2023-05-02T10:51:54.082Z,46.51
2023-05-02T10:52:54.058Z,46.43
2023-05-02T10:53:59.373Z,46.46
2023-05-02T10:54:54.011Z,46.42
2023-05-02T10:55:54.037Z,46.41
2023-05-02T10:56:54.069Z,46.49
2023-05-02T10:57:54.119Z,46.42
2023-05-02T10:58:54.179Z,46.41
2023-05-02T10:59:54.227Z,46.42
2023-05-02T11:00:54.301Z,46.46
2023-05-02T11:01:54.300Z,46.28
2023-05-02T11:02:54.402Z,46.28
2023-05-02T11:03:54.351Z,46.35
2023-05-02T11:04:54.370Z,46.35
2023-05-02T11:05:54.437Z,46.30
2023-05-02T11:06:54.488Z,46.22
2023-05-02T11:07:54.539Z,46.19
2023-05-02T11:08:54.578Z,46.23
2023-05-02T11:09:54.617Z,46.17
2023-05-02T11:10:54.688Z,46.23
2023-05-02T11:11:54.731Z,46.21
2023-05-02T11:12:54.788Z,46.23
2023-05-02T11:13:54.841Z,46.15
2023-05-02T11:14:54.877Z,46.20
2023-05-02T11:15:54.911Z,46.15
2023-05-02T11:16:55.132Z,46.08
2023-05-02T11:17:55.016Z,46.14
2023-05-02T11:18:54.992Z,46.11
2023-05-02T11:19:55.004Z,46.11
2023-05-02T11:20:55.032Z,46.04
2023-05-02T11:21:55.056Z,46.12
2023-05-02T11:22:55.220Z,46.00
2023-05-02T11:23:55.137Z,46.09
2023-05-02T11:24:55.115Z,46.04
2023-05-02T11:25:55.213Z,46.06
2023-05-02T11:26:55.249Z,45.99
2023-05-02T11:27:55.283Z,45.97
2023-05-02T11:28:55.357Z,45.98
2023-05-02T11:29:55.399Z,45.96
2023-05-02T11:30:56.685Z,45.98
2023-05-02T11:31:55.593Z,45.96
2023-05-02T11:32:55.578Z,45.97
2023-05-02T11:33:55.618Z,45.99
2023-05-02T11:34:55.668Z,46.00
2023-05-02T11:35:55.722Z,45.99
2023-05-02T11:36:55.758Z,46.01
2023-05-02T11:37:55.758Z,46.00
2023-05-02T11:38:55.752Z,45.98
2023-05-02T11:39:55.772Z,45.98
2023-05-02T11:40:55.739Z,46.03
2023-05-02T11:41:55.747Z,45.97
2023-05-02T11:42:55.772Z,45.99
2023-05-02T11:43:55.775Z,46.00
2023-05-02T11:44:55.772Z,45.96
2023-05-02T11:45:55.787Z,45.97
2023-05-02T11:46:55.764Z,45.91
2023-05-02T11:47:55.752Z,45.98
2023-05-02T11:48:55.768Z,45.97
2023-05-02T11:49:55.742Z,45.99
2023-05-02T11:50:55.749Z,45.97
2023-05-02T11:51:55.747Z,45.96
2023-05-02T11:52:55.731Z,45.92
2023-05-02T11:53:55.718Z,45.93
2023-05-02T11:54:55.731Z,45.87
2023-05-02T11:55:55.715Z,45.94
2023-05-02T11:56:55.722Z,45.95
2023-05-02T11:57:55.681Z,45.91
2023-05-02T11:58:55.687Z,45.88
2023-05-02T11:59:55.683Z,45.88
2023-05-02T12:00:55.682Z,45.86
2023-05-02T12:01:55.687Z,45.89
2023-05-02T12:02:55.767Z,45.81
2023-05-02T12:03:55.700Z,45.88
2023-05-02T12:04:55.673Z,45.82
2023-05-02T12:05:55.683Z,45.83
2023-05-02T12:06:55.691Z,45.76
2023-05-02T12:07:55.656Z,45.74
2023-05-02T12:08:55.695Z,45.65
2023-05-02T12:09:55.648Z,45.62
2023-05-02T12:10:55.634Z,45.54
2023-05-02T12:11:55.634Z,45.66
2023-05-02T12:12:55.631Z,45.57
2023-05-02T12:13:55.625Z,45.57
2023-05-02T12:14:55.633Z,45.58
2023-05-02T12:15:55.732Z,45.58
2023-05-02T12:16:55.587Z,45.62
2023-05-02T12:17:55.695Z,45.52
2023-05-02T12:18:55.588Z,45.57
2023-05-02T12:19:55.577Z,45.47
2023-05-02T12:20:55.578Z,45.51
2023-05-02T12:21:55.642Z,45.51
2023-05-02T12:22:55.552Z,45.52
2023-05-02T12:23:55.551Z,45.47
2023-05-02T12:24:55.532Z,45.50
2023-05-02T12:25:55.537Z,45.49
2023-05-02T12:26:55.516Z,45.48
2023-05-02T12:27:55.506Z,45.39
2023-05-02T12:28:55.503Z,45.41
2023-05-02T12:29:55.488Z,45.44
2023-05-02T12:30:55.495Z,45.42
2023-05-02T12:31:55.569Z,45.45
2023-05-02T12:32:55.519Z,45.42
2023-05-02T12:33:55.526Z,45.49
2023-05-02T12:34:55.481Z,45.38
2023-05-02T12:35:55.459Z,45.43
2023-05-02T12:36:55.468Z,45.41
2023-05-02T12:37:55.440Z,45.45
2023-05-02T12:38:55.435Z,45.46
2023-05-02T12:39:55.416Z,45.43
2023-05-02T12:40:55.431Z,45.41
2023-05-02T12:41:55.426Z,45.34
2023-05-02T12:42:55.427Z,45.36
2023-05-02T12:43:55.408Z,45.34
2023-05-02T12:44:55.415Z,45.31
2023-05-02T12:45:55.418Z,45.36
2023-05-02T12:46:55.416Z,45.32
2023-05-02T12:47:55.425Z,45.31
2023-05-02T12:48:55.406Z,45.39
2023-05-02T12:49:55.417Z,45.36
2023-05-02T12:50:55.448Z,45.33
2023-05-02T12:51:55.419Z,45.28
2023-05-02T12:52:55.425Z,45.37